createdAt,value
2022-10-29T00:03:51.149Z,8.98
2022-10-29T00:14:01.014Z,8.23
2022-10-29T00:24:03.230Z,7.70
2022-10-29T00:34:10.649Z,6.68
2022-10-29T00:44:18.217Z,6.80
2022-10-29T00:54:20.422Z,6.53
2022-10-29T01:04:25.471Z,8.75
2022-10-29T01:14:39.728Z,6.97
2022-10-29T01:24:44.857Z,6.75
2022-10-29T01:34:58.502Z,6.95
2022-10-29T01:45:14.153Z,6.00
2022-10-29T01:55:23.643Z,6.40
2022-10-29T02:05:25.544Z,6.80
2022-10-29T02:15:42.264Z,6.35
2022-10-29T02:25:44.698Z,6.88
2022-10-29T02:35:49.102Z,6.07
2022-10-29T02:45:51.234Z,5.60
2022-10-29T02:55:57.370Z,5.90
2022-10-29T03:06:05.298Z,5.57
2022-10-29T03:16:07.262Z,5.28
2022-10-29T03:26:12.216Z,5.88
2022-10-29T03:36:14.368Z,6.75
2022-10-29T03:46:17.918Z,5.60
2022-10-29T03:56:19.914Z,5.53
2022-10-29T04:06:24.374Z,6.05
2022-10-29T04:16:28.656Z,5.32
2022-10-29T04:36:59.687Z,5.28
2022-10-29T04:47:04.355Z,5.20
2022-10-29T04:57:06.381Z,5.13
2022-10-29T05:07:10.746Z,5.05
2022-10-29T05:17:12.760Z,4.50
2022-10-29T05:27:17.061Z,6.20
2022-10-29T05:37:19.371Z,4.75
2022-10-29T05:47:21.490Z,4.57
2022-10-29T05:57:23.626Z,4.50
2022-10-29T06:07:26.395Z,6.28
2022-10-29T06:17:28.455Z,6.10
2022-10-29T06:27:46.211Z,5.47
2022-10-29T06:37:52.878Z,4.63
2022-10-29T06:48:00.299Z,4.85
2022-10-29T06:58:04.562Z,4.75
2022-10-29T07:08:06.696Z,6.25
2022-10-29T07:18:12.029Z,5.32
2022-10-29T07:28:16.646Z,5.53
2022-10-29T07:38:18.694Z,4.90
2022-10-29T07:48:21.688Z,5.97
2022-10-29T07:58:27.386Z,4.95
2022-10-29T08:08:31.829Z,6.47
2022-10-29T08:18:33.933Z,6.57
2022-10-29T08:28:38.418Z,5.82
2022-10-29T08:38:42.775Z,6.55
2022-10-29T08:48:53.070Z,6.57
2022-10-29T08:59:17.970Z,6.18
2022-10-29T09:09:43.908Z,6.90
2022-10-29T09:19:51.022Z,7.18
2022-10-29T09:30:09.955Z,7.30
2022-10-29T09:40:20.933Z,9.30
2022-10-29T09:50:34.282Z,19.30
2022-10-29T10:00:36.240Z,9.75
2022-10-29T10:10:51.648Z,8.93
2022-10-29T10:21:09.180Z,9.98
2022-10-29T10:31:16.116Z,9.88
2022-10-29T10:41:26.544Z,9.38
2022-10-29T10:51:29.197Z,11.98
2022-10-29T11:02:01.782Z,9.98
2022-10-29T11:12:16.052Z,11.88
2022-10-29T11:22:34.745Z,11.13
2022-10-29T11:33:02.095Z,11.45
2022-10-29T11:43:11.501Z,11.70
2022-10-29T11:53:19.505Z,11.15
2022-10-29T12:03:53.251Z,11.40
2022-10-29T12:14:08.027Z,10.63
2022-10-29T12:24:39.450Z,10.38
2022-10-29T12:34:51.073Z,9.95
2022-10-29T12:45:22.423Z,9.60
2022-10-29T12:55:32.683Z,9.98
2022-10-29T13:05:45.593Z,9.45
2022-10-29T13:16:21.343Z,8.13
2022-10-29T13:26:55.015Z,6.32
2022-10-29T13:37:37.753Z,6.00
2022-10-29T13:47:40.673Z,5.63
2022-10-29T13:58:00.911Z,6.10
2022-10-29T14:08:35.633Z,5.78
2022-10-29T14:18:42.615Z,7.03
2022-10-29T14:28:49.288Z,7.35
2022-10-29T14:38:57.220Z,11.02
2022-10-29T14:49:15.617Z,7.45
2022-10-29T14:59:25.072Z,7.47
2022-10-29T15:09:33.624Z,8.77
2022-10-29T15:19:44.036Z,8.35
2022-10-29T15:29:49.055Z,9.10
2022-10-29T15:39:57.290Z,9.68
2022-10-29T15:49:59.243Z,9.43
2022-10-29T16:00:08.313Z,8.80
2022-10-29T16:10:22.246Z,9.82
2022-10-29T16:20:27.599Z,9.93
2022-10-29T16:30:33.112Z,10.55
2022-10-29T16:40:36.147Z,9.60
2022-10-29T16:50:40.430Z,9.55
2022-10-29T17:00:45.183Z,10.00
2022-10-29T17:10:49.941Z,10.35
2022-10-29T17:20:59.674Z,10.95
2022-10-29T17:31:08.137Z,11.05
2022-10-29T17:41:13.490Z,11.55
2022-10-29T17:51:19.118Z,10.25
2022-10-29T18:01:23.552Z,9.50
2022-10-29T18:11:32.110Z,9.40
2022-10-29T18:21:36.620Z,10.32
2022-10-29T18:31:47.019Z,9.75
2022-10-29T18:41:51.583Z,10.82
2022-10-29T18:51:55.216Z,9.25
2022-10-29T19:01:59.585Z,9.25
2022-10-29T19:12:04.073Z,10.00
2022-10-29T19:22:08.926Z,10.05
2022-10-29T19:32:18.399Z,9.63
2022-10-29T19:42:23.083Z,9.50
2022-10-29T19:52:28.415Z,10.85
2022-10-29T20:02:34.304Z,9.63
2022-10-29T20:12:37.685Z,10.80
2022-10-29T20:22:41.912Z,9.35
2022-10-29T20:32:44.784Z,9.80
2022-10-29T20:42:49.986Z,10.35
2022-10-29T20:52:54.451Z,10.43
2022-10-29T21:02:59.424Z,12.15
2022-10-29T21:13:09.127Z,12.95
2022-10-29T21:23:12.298Z,12.68
2022-10-29T21:33:14.684Z,12.95
2022-10-29T21:43:17.729Z,13.35
2022-10-29T21:53:22.994Z,14.23
2022-10-29T22:03:25.187Z,15.10
2022-10-29T22:13:34.098Z,14.63
2022-10-29T22:23:38.272Z,14.98
2022-10-29T22:33:45.199Z,19.83
2022-10-29T22:43:49.629Z,14.93
2022-10-29T22:53:52.541Z,16.40
2022-10-29T23:03:55.917Z,17.95
2022-10-29T23:14:00.040Z,18.55
2022-10-29T23:24:05.687Z,23.73
2022-10-29T23:34:13.873Z,17.65
2022-10-29T23:44:16.004Z,17.10
2022-10-29T23:54:18.744Z,16.60
